createdAt,value
2023-02-28T00:00:48.508Z,0.32
2023-02-28T00:03:18.122Z,0.41
2023-02-28T00:05:44.847Z,0.36
2023-02-28T00:08:17.549Z,0.19
2023-02-28T00:10:44.729Z,0.23
2023-02-28T00:13:14.410Z,0.20
2023-02-28T00:15:41.189Z,0.18
2023-02-28T00:18:07.902Z,0.15
2023-02-28T00:20:38.303Z,0.19
2023-02-28T00:23:08.563Z,0.20
2023-02-28T00:25:39.029Z,0.19
2023-02-28T00:28:05.621Z,0.18
2023-02-28T00:30:35.481Z,0.22
2023-02-28T00:33:05.520Z,0.23
2023-02-28T00:35:34.918Z,0.34
2023-02-28T00:38:04.812Z,0.35
2023-02-28T00:40:38.682Z,0.31
2023-02-28T00:43:07.066Z,0.38
2023-02-28T00:45:33.762Z,0.32
2023-02-28T00:48:00.903Z,0.27
2023-02-28T00:50:38.969Z,0.30
2023-02-28T00:53:05.617Z,0.29
2023-02-28T00:55:36.088Z,0.32
2023-02-28T00:58:08.171Z,0.31
2023-02-28T01:00:37.501Z,0.35
2023-02-28T01:03:06.669Z,0.31
2023-02-28T01:05:36.605Z,0.33
2023-02-28T01:08:05.867Z,0.28
2023-02-28T01:10:36.176Z,0.34
2023-02-28T01:13:08.545Z,0.40
2023-02-28T01:15:37.727Z,0.40
2023-02-28T01:18:05.427Z,0.47
2023-02-28T01:20:36.817Z,0.47
2023-02-28T01:23:03.833Z,0.46
2023-02-28T01:25:38.754Z,0.53
2023-02-28T01:28:06.872Z,0.49
2023-02-28T01:30:34.625Z,0.47
2023-02-28T01:33:03.570Z,0.53
2023-02-28T01:35:36.579Z,0.49
2023-02-28T01:38:20.441Z,0.42
2023-02-28T01:40:53.492Z,0.51
2023-02-28T01:43:26.556Z,0.62
2023-02-28T01:45:56.976Z,0.58
2023-02-28T01:48:36.670Z,0.57
2023-02-28T01:51:10.365Z,0.35
2023-02-28T01:53:47.537Z,0.40
2023-02-28T01:56:23.218Z,0.46
2023-02-28T01:59:09.727Z,0.45
2023-02-28T02:01:39.152Z,0.43
2023-02-28T02:04:06.748Z,0.46
2023-02-28T02:06:44.017Z,0.46
2023-02-28T02:09:11.171Z,0.49
2023-02-28T02:11:38.864Z,0.54
2023-02-28T02:14:18.013Z,0.53
2023-02-28T02:17:03.423Z,0.53
2023-02-28T02:19:42.939Z,0.48
2023-02-28T02:22:32.292Z,0.49
2023-02-28T02:25:13.322Z,0.44
2023-02-28T02:28:14.380Z,0.35
2023-02-28T02:30:49.983Z,0.28
2023-02-28T02:33:44.641Z,0.15
2023-02-28T02:36:18.983Z,0.16
2023-02-28T02:38:55.836Z,0.04
2023-02-28T02:41:42.279Z,0.08
2023-02-28T02:44:15.315Z,-0.04
2023-02-28T02:46:44.799Z,-0.11
2023-02-28T02:49:28.508Z,-0.20
2023-02-28T02:51:56.128Z,-0.19
2023-02-28T02:54:30.992Z,-0.17
2023-02-28T02:57:05.746Z,-0.13
2023-02-28T02:59:33.347Z,-0.11
2023-02-28T03:02:05.325Z,-0.09
2023-02-28T03:04:37.955Z,-0.08
2023-02-28T03:07:05.032Z,-0.07
2023-02-28T03:09:40.748Z,-0.07
2023-02-28T03:12:11.306Z,-0.13
2023-02-28T03:15:07.461Z,-0.23
2023-02-28T03:17:52.472Z,-0.18
2023-02-28T03:20:37.429Z,-0.24
2023-02-28T03:23:10.065Z,-0.24
2023-02-28T03:26:03.798Z,-0.34
2023-02-28T03:28:45.432Z,-0.39
2023-02-28T03:31:34.058Z,-0.45
2023-02-28T03:34:08.975Z,-0.41
2023-02-28T03:36:49.406Z,-0.43
2023-02-28T03:39:26.681Z,-0.43
2023-02-28T03:42:08.271Z,-0.43
2023-02-28T03:44:41.168Z,-0.41
2023-02-28T03:47:30.438Z,-0.44
2023-02-28T03:50:18.276Z,-0.47
2023-02-28T03:53:15.761Z,-0.42
2023-02-28T03:55:46.333Z,-0.41
2023-02-28T03:58:21.905Z,-0.36
2023-02-28T04:00:55.768Z,-0.28
2023-02-28T04:03:35.320Z,-0.30
2023-02-28T04:06:05.935Z,-0.15
2023-02-28T04:08:33.002Z,-0.18
2023-02-28T04:11:15.760Z,-0.16
2023-02-28T04:13:49.533Z,-0.21
2023-02-28T04:16:33.897Z,-0.34
2023-02-28T04:19:06.081Z,-0.28
2023-02-28T04:21:41.817Z,-0.27
2023-02-28T04:24:15.665Z,-0.36
2023-02-28T04:26:45.574Z,-0.40
2023-02-28T04:29:14.533Z,-0.35
2023-02-28T04:31:41.303Z,-0.47
2023-02-28T04:34:08.066Z,-0.48
2023-02-28T04:36:37.947Z,-0.57
2023-02-28T04:39:07.504Z,-0.55
2023-02-28T04:41:36.719Z,-0.63
2023-02-28T04:44:04.004Z,-0.71
2023-02-28T04:46:31.675Z,-0.67
2023-02-28T04:48:59.154Z,-0.68
2023-02-28T04:51:25.922Z,-0.76
2023-02-28T04:53:54.735Z,-0.75
2023-02-28T04:56:22.066Z,-0.81
2023-02-28T04:58:49.220Z,-0.81
2023-02-28T05:01:28.998Z,-0.77
2023-02-28T05:03:57.665Z,-0.77
2023-02-28T05:06:25.636Z,-0.71
2023-02-28T05:08:52.779Z,-0.77
2023-02-28T05:11:29.424Z,-0.76
2023-02-28T05:14:01.747Z,-0.62
2023-02-28T05:16:30.738Z,-0.65
2023-02-28T05:18:59.118Z,-0.52
2023-02-28T05:21:28.793Z,-0.61
2023-02-28T05:24:02.864Z,-0.60
2023-02-28T05:26:30.546Z,-0.59
2023-02-28T05:28:57.458Z,-0.62
2023-02-28T05:31:24.564Z,-0.60
2023-02-28T05:33:51.263Z,-0.70
2023-02-28T05:36:18.311Z,-0.74
2023-02-28T05:38:53.581Z,-0.81
2023-02-28T05:41:21.003Z,-0.85
2023-02-28T05:43:55.946Z,-0.71
2023-02-28T05:46:24.807Z,-0.74
2023-02-28T05:48:52.141Z,-0.68
2023-02-28T05:51:22.304Z,-0.71
2023-02-28T05:53:50.213Z,-0.69
2023-02-28T05:56:16.895Z,-0.63
2023-02-28T05:58:44.768Z,-0.68
2023-02-28T06:01:38.101Z,-0.60
2023-02-28T06:04:14.328Z,-0.55
2023-02-28T06:06:47.207Z,-0.51
2023-02-28T06:09:14.358Z,-0.40
2023-02-28T06:11:41.100Z,-0.31
2023-02-28T06:14:07.987Z,-0.25
2023-02-28T06:16:35.584Z,-0.20
2023-02-28T06:19:03.940Z,-0.14
2023-02-28T06:21:31.431Z,0.02
2023-02-28T06:23:59.378Z,0.03
2023-02-28T06:26:26.431Z,0.13
2023-02-28T06:28:53.079Z,0.23
2023-02-28T06:31:20.042Z,0.31
2023-02-28T06:33:47.072Z,0.28
2023-02-28T06:36:15.344Z,0.26
2023-02-28T06:38:44.787Z,0.30
2023-02-28T06:41:11.785Z,0.36
2023-02-28T06:43:41.156Z,0.33
2023-02-28T06:46:09.514Z,0.36
2023-02-28T06:48:36.601Z,0.41
2023-02-28T06:51:15.163Z,0.43
2023-02-28T06:53:42.146Z,0.51
2023-02-28T06:56:14.181Z,0.58
2023-02-28T06:58:41.274Z,0.61
2023-02-28T07:01:08.889Z,0.67
2023-02-28T07:03:36.831Z,0.83
2023-02-28T07:06:05.079Z,0.95
2023-02-28T07:08:32.679Z,1.11
2023-02-28T07:10:59.504Z,1.18
2023-02-28T07:13:29.060Z,1.31
2023-02-28T07:16:01.066Z,1.53
2023-02-28T07:18:28.391Z,1.67
2023-02-28T07:20:58.138Z,1.90
2023-02-28T07:23:24.950Z,2.12
2023-02-28T07:25:52.081Z,2.35
2023-02-28T07:28:18.756Z,2.62
2023-02-28T07:30:45.428Z,2.84
2023-02-28T07:33:13.106Z,2.93
2023-02-28T07:35:45.841Z,3.03
2023-02-28T07:38:14.760Z,3.16
2023-02-28T07:40:41.631Z,3.28
2023-02-28T07:43:08.299Z,3.11
2023-02-28T07:45:37.909Z,3.27
2023-02-28T07:48:07.053Z,3.22
2023-02-28T07:50:33.716Z,3.32
2023-02-28T07:53:00.535Z,3.40
2023-02-28T07:55:27.895Z,3.44
2023-02-28T07:57:55.686Z,3.48
2023-02-28T08:00:23.021Z,3.62
2023-02-28T08:02:52.851Z,3.65
2023-02-28T08:05:21.884Z,3.76
2023-02-28T08:07:50.631Z,3.91
2023-02-28T08:10:17.319Z,4.04
2023-02-28T08:12:45.113Z,4.23
2023-02-28T08:15:11.955Z,4.34
2023-02-28T08:17:38.729Z,4.34
2023-02-28T08:20:05.886Z,4.38
2023-02-28T08:22:32.595Z,4.42
2023-02-28T08:24:59.280Z,4.32
2023-02-28T08:27:25.989Z,4.20
2023-02-28T08:29:52.665Z,4.11
2023-02-28T08:32:29.354Z,4.04
2023-02-28T08:34:56.686Z,4.02
2023-02-28T08:37:23.331Z,4.02
2023-02-28T08:39:50.008Z,4.02
2023-02-28T08:42:16.691Z,4.04
2023-02-28T08:44:43.439Z,4.06
2023-02-28T08:47:10.101Z,4.11
2023-02-28T08:49:38.535Z,4.21
2023-02-28T08:52:05.214Z,4.29
2023-02-28T08:54:34.358Z,4.40
2023-02-28T08:57:00.953Z,4.44
2023-02-28T08:59:27.631Z,4.41
2023-02-28T09:01:54.269Z,4.47
2023-02-28T09:04:23.390Z,4.53
2023-02-28T09:06:51.478Z,4.58
2023-02-28T09:09:18.129Z,4.56
2023-02-28T09:11:44.824Z,4.81
2023-02-28T09:14:11.647Z,4.95
2023-02-28T09:16:38.549Z,5.03
2023-02-28T09:19:05.378Z,5.19
2023-02-28T09:21:32.179Z,5.33
2023-02-28T09:23:58.997Z,5.55
2023-02-28T09:26:32.413Z,5.58
2023-02-28T09:29:05.931Z,5.87
2023-02-28T09:31:32.749Z,5.78
2023-02-28T09:34:02.542Z,5.94
2023-02-28T09:36:41.888Z,5.82
2023-02-28T09:39:11.559Z,5.97
2023-02-28T09:41:51.773Z,5.98
2023-02-28T09:44:38.885Z,5.97
2023-02-28T09:47:19.817Z,5.99
2023-02-28T09:49:48.922Z,6.05
2023-02-28T09:52:20.463Z,6.00
2023-02-28T09:54:47.360Z,5.91
2023-02-28T09:57:36.532Z,5.79
2023-02-28T10:00:11.361Z,5.94
2023-02-28T10:03:20.914Z,6.02
2023-02-28T10:05:59.791Z,6.11
2023-02-28T10:08:35.052Z,6.29
2023-02-28T10:11:05.567Z,6.55
2023-02-28T10:13:59.118Z,6.72
2023-02-28T10:16:31.261Z,6.85
2023-02-28T10:19:04.974Z,6.97
2023-02-28T10:21:36.951Z,7.24
2023-02-28T10:26:39.710Z,7.43
2023-02-28T10:29:08.413Z,7.54
2023-02-28T10:31:35.141Z,7.66
2023-02-28T10:34:02.511Z,7.78
2023-02-28T10:36:30.241Z,7.76
2023-02-28T10:38:57.131Z,7.76
2023-02-28T10:41:29.873Z,7.91
2023-02-28T10:44:21.886Z,8.21
2023-02-28T10:46:49.582Z,8.56
2023-02-28T10:49:25.021Z,8.67
2023-02-28T10:51:55.225Z,8.69
2023-02-28T10:54:36.243Z,8.68
2023-02-28T10:57:20.749Z,8.59
2023-02-28T10:59:52.095Z,8.62
2023-02-28T11:02:38.703Z,8.47
2023-02-28T11:05:35.470Z,8.27
2023-02-28T11:08:13.985Z,8.23
2023-02-28T11:10:41.109Z,8.38
2023-02-28T11:13:07.791Z,8.51
2023-02-28T11:15:35.412Z,8.46
2023-02-28T11:18:03.189Z,8.54
2023-02-28T11:20:32.000Z,8.75
2023-02-28T11:23:00.222Z,8.87
2023-02-28T11:25:33.260Z,8.95
2023-02-28T11:28:05.575Z,8.87
2023-02-28T11:30:39.828Z,8.55
2023-02-28T11:33:46.137Z,8.38
2023-02-28T11:36:21.415Z,8.14
2023-02-28T11:38:50.632Z,7.89
2023-02-28T11:41:29.275Z,7.89
2023-02-28T11:44:08.145Z,7.69
2023-02-28T11:46:45.258Z,7.51
2023-02-28T11:49:36.955Z,7.40
2023-02-28T11:52:37.962Z,7.47
2023-02-28T11:55:10.657Z,7.51
2023-02-28T11:57:50.615Z,7.78
2023-02-28T12:00:36.807Z,7.60
2023-02-28T12:03:29.303Z,7.56
2023-02-28T12:06:06.747Z,7.58
2023-02-28T12:08:54.041Z,7.66
2023-02-28T12:11:34.025Z,7.63
2023-02-28T12:14:22.311Z,7.77
2023-02-28T12:16:56.047Z,7.78
2023-02-28T12:19:40.297Z,7.93
2023-02-28T12:22:26.266Z,8.03
2023-02-28T12:25:08.274Z,8.08
2023-02-28T12:27:38.782Z,7.87
2023-02-28T12:30:19.442Z,7.98
2023-02-28T12:32:50.520Z,7.92
2023-02-28T12:35:27.903Z,7.79
2023-02-28T12:38:06.791Z,7.43
2023-02-28T12:40:47.154Z,7.23
2023-02-28T12:43:16.614Z,7.14
2023-02-28T12:45:50.129Z,6.96
2023-02-28T12:48:25.118Z,6.79
2023-02-28T12:50:53.273Z,6.78
2023-02-28T12:53:40.013Z,6.67
2023-02-28T12:56:13.729Z,6.71
2023-02-28T12:58:47.204Z,6.58
2023-02-28T13:02:00.477Z,6.57
2023-02-28T13:04:48.731Z,6.47
2023-02-28T13:07:50.795Z,6.78
2023-02-28T13:10:19.829Z,6.98
2023-02-28T13:12:51.906Z,7.16
2023-02-28T13:15:32.304Z,7.12
2023-02-28T13:18:00.218Z,7.15
2023-02-28T13:20:36.982Z,7.17
2023-02-28T13:23:15.370Z,7.25
2023-02-28T13:25:42.928Z,7.37
2023-02-28T13:28:17.904Z,7.36
2023-02-28T13:30:53.926Z,7.65
2023-02-28T13:33:34.574Z,7.85
2023-02-28T13:36:15.368Z,8.12
2023-02-28T13:38:48.838Z,8.35
2023-02-28T13:41:32.833Z,8.42
2023-02-28T13:44:03.120Z,8.50
2023-02-28T13:46:33.488Z,8.49
2023-02-28T13:49:32.663Z,8.90
2023-02-28T13:52:05.875Z,9.11
2023-02-28T13:55:15.664Z,9.17
2023-02-28T13:57:57.529Z,9.38
2023-02-28T14:00:34.637Z,9.62
2023-02-28T14:03:22.837Z,9.77
2023-02-28T14:06:20.199Z,10.02
2023-02-28T14:09:10.526Z,10.11
2023-02-28T14:11:41.960Z,10.22
2023-02-28T14:14:10.581Z,10.41
2023-02-28T14:17:03.721Z,10.45
2023-02-28T14:19:32.436Z,10.44
2023-02-28T14:22:42.343Z,10.44
2023-02-28T14:25:35.444Z,10.43
2023-02-28T14:28:11.137Z,10.34
2023-02-28T14:30:57.926Z,10.11
2023-02-28T14:33:41.039Z,10.03
2023-02-28T14:36:29.141Z,9.95
2023-02-28T14:39:01.226Z,10.06
2023-02-28T14:41:37.991Z,9.81
2023-02-28T14:44:19.278Z,9.57
2023-02-28T14:46:48.227Z,9.33
2023-02-28T14:49:38.761Z,8.97
2023-02-28T14:52:35.767Z,8.68
2023-02-28T14:55:15.309Z,8.65
2023-02-28T14:57:51.699Z,8.52
2023-02-28T15:00:27.175Z,8.32
2023-02-28T15:02:54.913Z,8.24
2023-02-28T15:05:35.660Z,8.18
2023-02-28T15:08:27.096Z,7.90
2023-02-28T15:11:05.502Z,7.64
2023-02-28T15:13:41.669Z,7.53
2023-02-28T15:16:41.366Z,7.46
2023-02-28T15:19:17.343Z,7.35
2023-02-28T15:21:46.462Z,7.31
2023-02-28T15:24:29.308Z,7.16
2023-02-28T15:26:58.576Z,7.08
2023-02-28T15:29:28.539Z,7.03
2023-02-28T15:32:04.150Z,6.92
2023-02-28T15:34:44.316Z,6.79
2023-02-28T15:37:36.461Z,6.72
2023-02-28T15:40:17.280Z,7.00
2023-02-28T15:43:04.727Z,7.25
2023-02-28T15:45:42.269Z,7.55
2023-02-28T15:48:27.853Z,7.48
2023-02-28T15:50:56.884Z,7.26
2023-02-28T15:53:52.819Z,7.01
2023-02-28T15:56:21.445Z,6.81
2023-02-28T15:58:48.505Z,6.62
2023-02-28T16:01:25.704Z,6.46
2023-02-28T16:03:54.868Z,6.23
2023-02-28T16:06:33.111Z,6.02
2023-02-28T16:09:02.944Z,5.89
2023-02-28T16:11:30.522Z,5.80
2023-02-28T16:14:00.865Z,5.63
2023-02-28T16:16:32.135Z,5.41
2023-02-28T16:19:02.606Z,5.22
2023-02-28T16:21:33.044Z,5.17
2023-02-28T16:24:05.091Z,5.09
2023-02-28T16:26:36.164Z,4.89
2023-02-28T16:29:06.936Z,4.76
2023-02-28T16:31:43.623Z,4.66
2023-02-28T16:34:12.954Z,4.52
2023-02-28T16:36:44.194Z,4.41
2023-02-28T16:39:11.844Z,4.29
2023-02-28T16:41:38.485Z,4.23
2023-02-28T16:44:12.867Z,4.13
2023-02-28T16:46:39.527Z,3.96
2023-02-28T16:49:12.058Z,3.84
2023-02-28T16:51:41.464Z,3.77
2023-02-28T16:54:09.439Z,3.71
2023-02-28T16:56:42.282Z,3.62
2023-02-28T16:59:11.514Z,3.44
2023-02-28T17:01:38.620Z,3.32
2023-02-28T17:04:12.089Z,3.18
2023-02-28T17:06:39.171Z,3.05
2023-02-28T17:09:16.966Z,3.03
2023-02-28T17:11:45.640Z,2.91
2023-02-28T17:14:12.228Z,2.94
2023-02-28T17:16:45.980Z,2.83
2023-02-28T17:19:16.952Z,2.86
2023-02-28T17:21:44.004Z,2.67
2023-02-28T17:24:16.532Z,2.69
2023-02-28T17:26:45.994Z,2.48
2023-02-28T17:29:19.449Z,2.55
2023-02-28T17:31:47.992Z,2.37
2023-02-28T17:34:19.405Z,2.25
2023-02-28T17:36:53.234Z,2.16
2023-02-28T17:39:25.218Z,2.09
2023-02-28T17:41:53.138Z,1.96
2023-02-28T17:44:20.894Z,1.99
2023-02-28T17:46:52.257Z,1.86
2023-02-28T17:49:44.279Z,1.75
2023-02-28T17:52:12.300Z,1.77
2023-02-28T17:54:39.430Z,1.60
2023-02-28T17:57:13.572Z,1.44
2023-02-28T17:59:41.844Z,1.38
2023-02-28T18:02:10.587Z,1.50
2023-02-28T18:04:37.287Z,1.49
2023-02-28T18:07:07.012Z,1.31
2023-02-28T18:09:33.790Z,1.22
2023-02-28T18:12:03.396Z,1.14
2023-02-28T18:14:30.083Z,1.10
2023-02-28T18:17:02.878Z,1.05
2023-02-28T18:19:29.586Z,1.00
2023-02-28T18:22:01.667Z,0.97
2023-02-28T18:24:31.491Z,0.94
2023-02-28T18:26:58.085Z,0.89
2023-02-28T18:29:48.368Z,0.87
2023-02-28T18:32:17.308Z,0.85
2023-02-28T18:34:45.206Z,0.72
2023-02-28T18:37:12.104Z,0.68
2023-02-28T18:39:38.950Z,0.73
2023-02-28T18:42:08.979Z,0.66
2023-02-28T18:44:37.633Z,0.60
2023-02-28T18:47:04.362Z,0.73
2023-02-28T18:49:34.146Z,0.65
2023-02-28T18:52:00.768Z,0.46
2023-02-28T18:54:37.189Z,0.51
2023-02-28T18:57:04.789Z,0.46
2023-02-28T18:59:33.648Z,0.37
2023-02-28T19:02:06.155Z,0.22
2023-02-28T19:04:37.727Z,0.25
2023-02-28T19:07:06.032Z,0.20
2023-02-28T19:09:35.131Z,0.20
2023-02-28T19:12:09.572Z,0.18
2023-02-28T19:14:36.314Z,0.12
2023-02-28T19:17:02.961Z,0.09
2023-02-28T19:19:29.764Z,0.02
2023-02-28T19:22:05.785Z,-0.13
2023-02-28T19:24:32.663Z,-0.03
2023-02-28T19:27:01.626Z,-0.17
2023-02-28T19:29:28.489Z,-0.02
2023-02-28T19:31:56.456Z,-0.23
2023-02-28T19:34:31.699Z,-0.41
2023-02-28T19:37:01.025Z,-0.54
2023-02-28T19:39:41.044Z,-0.60
2023-02-28T19:42:13.217Z,-0.58
2023-02-28T19:44:43.052Z,-0.75
2023-02-28T19:47:11.097Z,-0.74
2023-02-28T19:49:40.768Z,-0.75
2023-02-28T19:52:17.889Z,-0.71
2023-02-28T19:54:44.687Z,-0.74
2023-02-28T19:57:11.544Z,-0.76
2023-02-28T19:59:40.198Z,-0.75
2023-02-28T20:02:13.663Z,-0.78
2023-02-28T20:04:41.003Z,-0.87
2023-02-28T20:07:08.038Z,-0.86
2023-02-28T20:09:37.080Z,-0.82
2023-02-28T20:12:17.882Z,-0.88
2023-02-28T20:14:59.665Z,-0.91
2023-02-28T20:17:26.499Z,-0.98
2023-02-28T20:20:02.491Z,-0.95
2023-02-28T20:22:29.250Z,-0.96
2023-02-28T20:24:59.363Z,-0.95
2023-02-28T20:27:26.729Z,-1.00
2023-02-28T20:29:53.931Z,-1.04
2023-02-28T20:32:24.812Z,-1.03
2023-02-28T20:34:54.865Z,-1.16
2023-02-28T20:37:21.946Z,-1.04
2023-02-28T20:39:54.274Z,-1.12
2023-02-28T20:42:24.615Z,-1.18
2023-02-28T20:44:53.874Z,-1.21
2023-02-28T20:47:23.013Z,-1.22
2023-02-28T20:49:50.317Z,-1.11
2023-02-28T20:52:19.710Z,-1.36
2023-02-28T20:54:46.673Z,-1.43
2023-02-28T20:57:13.549Z,-1.57
2023-02-28T20:59:41.275Z,-1.52
2023-02-28T21:02:10.057Z,-1.52
2023-02-28T21:04:37.899Z,-1.54
2023-02-28T21:07:07.139Z,-1.48
2023-02-28T21:09:39.697Z,-1.45
2023-02-28T21:12:10.884Z,-1.61
2023-02-28T21:14:58.658Z,-1.63
2023-02-28T21:17:28.201Z,-1.60
2023-02-28T21:19:57.990Z,-1.68
2023-02-28T21:22:25.107Z,-1.72
2023-02-28T21:24:54.145Z,-1.71
2023-02-28T21:27:24.041Z,-1.74
2023-02-28T21:29:51.950Z,-1.75
2023-02-28T21:32:21.267Z,-1.80
2023-02-28T21:34:50.792Z,-1.77
2023-02-28T21:37:24.081Z,-1.79
2023-02-28T21:39:53.319Z,-1.80
2023-02-28T21:42:24.032Z,-1.87
2023-02-28T21:44:58.823Z,-1.85
2023-02-28T21:47:25.861Z,-1.87
2023-02-28T21:49:53.502Z,-1.88
2023-02-28T21:52:22.019Z,-1.90
2023-02-28T21:54:51.337Z,-1.91
2023-02-28T21:57:26.663Z,-2.00
2023-02-28T21:59:53.839Z,-2.00
2023-02-28T22:02:23.255Z,-2.01
2023-02-28T22:04:50.737Z,-2.03
2023-02-28T22:07:20.815Z,-2.17
2023-02-28T22:09:48.031Z,-2.14
2023-02-28T22:12:16.984Z,-2.10
2023-02-28T22:14:46.867Z,-2.12
2023-02-28T22:17:16.277Z,-2.13
2023-02-28T22:19:43.145Z,-2.15
2023-02-28T22:22:09.817Z,-2.15
2023-02-28T22:24:39.176Z,-2.16
2023-02-28T22:27:06.776Z,-2.13
2023-02-28T22:29:35.774Z,-2.24
2023-02-28T22:32:14.219Z,-2.26
2023-02-28T22:34:41.473Z,-2.26
2023-02-28T22:37:11.663Z,-2.30
2023-02-28T22:39:40.556Z,-2.36
2023-02-28T22:42:07.189Z,-2.39
2023-02-28T22:44:37.035Z,-2.45
2023-02-28T22:47:03.743Z,-2.36
2023-02-28T22:49:35.760Z,-2.37
2023-02-28T22:52:05.632Z,-2.46
2023-02-28T22:54:35.945Z,-2.47
2023-02-28T22:57:07.974Z,-2.47
2023-02-28T22:59:41.655Z,-2.47
2023-02-28T23:02:11.138Z,-2.45
2023-02-28T23:04:41.267Z,-2.47
2023-02-28T23:07:07.974Z,-2.50
2023-02-28T23:09:35.714Z,-2.52
2023-02-28T23:12:04.608Z,-2.51
2023-02-28T23:14:34.026Z,-2.57
2023-02-28T23:17:00.726Z,-2.55
2023-02-28T23:19:30.136Z,-2.57
2023-02-28T23:22:02.992Z,-2.56
2023-02-28T23:24:33.723Z,-2.62
2023-02-28T23:27:05.084Z,-2.68
2023-02-28T23:29:31.970Z,-2.67
2023-02-28T23:32:05.698Z,-2.63
2023-02-28T23:34:36.510Z,-2.65
2023-02-28T23:37:06.749Z,-2.69
2023-02-28T23:39:35.697Z,-2.67
2023-02-28T23:42:04.846Z,-2.64
2023-02-28T23:44:40.762Z,-2.75
2023-02-28T23:47:11.949Z,-2.75
2023-02-28T23:49:43.797Z,-2.79
2023-02-28T23:52:12.560Z,-2.79
2023-02-28T23:54:40.302Z,-2.82
2023-02-28T23:57:13.596Z,-2.80
2023-02-28T23:59:44.762Z,-2.79
